sensor_id;sensor_type;location;lat;lon;timestamp;temperature;humidity
792;DHT22;379;49.022;12.148;2023-04-24T00:01:48;10.30;99.90
792;DHT22;379;49.022;12.148;2023-04-24T00:04:15;10.30;99.90
792;DHT22;379;49.022;12.148;2023-04-24T00:06:42;10.30;99.90
792;DHT22;379;49.022;12.148;2023-04-24T00:09:09;10.30;99.90
792;DHT22;379;49.022;12.148;2023-04-24T00:11:37;10.30;99.90
792;DHT22;379;49.022;12.148;2023-04-24T00:14:04;10.30;99.90
792;DHT22;379;49.022;12.148;2023-04-24T00:16:30;10.30;99.90
792;DHT22;379;49.022;12.148;2023-04-24T00:18:58;10.30;99.90
792;DHT22;379;49.022;12.148;2023-04-24T00:21:26;10.30;99.90
792;DHT22;379;49.022;12.148;2023-04-24T00:23:53;10.30;99.90
792;DHT22;379;49.022;12.148;2023-04-24T00:26:19;10.30;99.90
792;DHT22;379;49.022;12.148;2023-04-24T00:28:46;10.40;99.90
792;DHT22;379;49.022;12.148;2023-04-24T00:31:13;10.40;99.90
792;DHT22;379;49.022;12.148;2023-04-24T00:33:39;10.40;99.90
792;DHT22;379;49.022;12.148;2023-04-24T00:36:08;10.40;99.90
792;DHT22;379;49.022;12.148;2023-04-24T00:38:35;10.50;99.90
792;DHT22;379;49.022;12.148;2023-04-24T00:41:01;10.50;99.90
792;DHT22;379;49.022;12.148;2023-04-24T00:43:28;10.50;99.90
792;DHT22;379;49.022;12.148;2023-04-24T00:45:55;10.50;99.90
792;DHT22;379;49.022;12.148;2023-04-24T00:48:23;10.40;99.90
792;DHT22;379;49.022;12.148;2023-04-24T00:50:50;10.40;99.90
792;DHT22;379;49.022;12.148;2023-04-24T00:53:18;10.50;99.90
792;DHT22;379;49.022;12.148;2023-04-24T00:55:45;10.40;99.90
792;DHT22;379;49.022;12.148;2023-04-24T00:58:13;10.50;99.90
792;DHT22;379;49.022;12.148;2023-04-24T01:00:40;10.50;99.90
792;DHT22;379;49.022;12.148;2023-04-24T01:03:07;10.50;99.90
792;DHT22;379;49.022;12.148;2023-04-24T01:05:34;10.50;99.90
792;DHT22;379;49.022;12.148;2023-04-24T01:08:01;10.40;99.90
792;DHT22;379;49.022;12.148;2023-04-24T01:10:31;10.40;99.90
792;DHT22;379;49.022;12.148;2023-04-24T01:12:59;10.40;99.90
792;DHT22;379;49.022;12.148;2023-04-24T01:15:26;10.40;99.90
792;DHT22;379;49.022;12.148;2023-04-24T01:17:52;10.40;99.90
792;DHT22;379;49.022;12.148;2023-04-24T01:20:19;10.40;99.90
792;DHT22;379;49.022;12.148;2023-04-24T01:22:48;10.40;99.90
792;DHT22;379;49.022;12.148;2023-04-24T01:25:15;10.30;99.90
792;DHT22;379;49.022;12.148;2023-04-24T01:27:42;10.30;99.90
792;DHT22;379;49.022;12.148;2023-04-24T01:30:10;10.40;99.90
792;DHT22;379;49.022;12.148;2023-04-24T01:32:37;10.40;99.90
792;DHT22;379;49.022;12.148;2023-04-24T01:35:05;10.40;99.90
792;DHT22;379;49.022;12.148;2023-04-24T01:37:32;10.40;99.90
792;DHT22;379;49.022;12.148;2023-04-24T01:40:00;10.50;99.90
792;DHT22;379;49.022;12.148;2023-04-24T01:42:29;10.50;99.90
792;DHT22;379;49.022;12.148;2023-04-24T01:44:57;10.50;99.90
792;DHT22;379;49.022;12.148;2023-04-24T01:47:23;10.50;99.90
792;DHT22;379;49.022;12.148;2023-04-24T01:49:50;10.60;99.90
792;DHT22;379;49.022;12.148;2023-04-24T01:52:18;10.50;99.90
792;DHT22;379;49.022;12.148;2023-04-24T01:54:45;10.60;99.90
792;DHT22;379;49.022;12.148;2023-04-24T01:57:13;10.60;99.90
792;DHT22;379;49.022;12.148;2023-04-24T01:59:40;10.50;99.90
792;DHT22;379;49.022;12.148;2023-04-24T02:02:07;10.40;99.90
792;DHT22;379;49.022;12.148;2023-04-24T02:04:34;10.40;99.90
792;DHT22;379;49.022;12.148;2023-04-24T02:07:00;10.40;99.90
792;DHT22;379;49.022;12.148;2023-04-24T02:09:27;10.40;99.90
792;DHT22;379;49.022;12.148;2023-04-24T02:11:54;10.40;99.90
792;DHT22;379;49.022;12.148;2023-04-24T02:14:23;10.40;99.90
792;DHT22;379;49.022;12.148;2023-04-24T02:16:49;10.30;99.90
792;DHT22;379;49.022;12.148;2023-04-24T02:19:16;10.30;99.90
792;DHT22;379;49.022;12.148;2023-04-24T02:21:43;10.30;99.90
792;DHT22;379;49.022;12.148;2023-04-24T02:24:09;10.20;99.90
792;DHT22;379;49.022;12.148;2023-04-24T02:26:36;10.30;99.90
792;DHT22;379;49.022;12.148;2023-04-24T02:29:03;10.30;99.90
792;DHT22;379;49.022;12.148;2023-04-24T02:31:31;10.30;99.90
792;DHT22;379;49.022;12.148;2023-04-24T02:33:58;10.30;99.90
792;DHT22;379;49.022;12.148;2023-04-24T02:36:24;10.30;99.90
792;DHT22;379;49.022;12.148;2023-04-24T02:38:51;10.30;99.90
792;DHT22;379;49.022;12.148;2023-04-24T02:41:18;10.30;99.90
792;DHT22;379;49.022;12.148;2023-04-24T02:43:45;10.30;99.90
792;DHT22;379;49.022;12.148;2023-04-24T02:46:11;10.30;99.90
792;DHT22;379;49.022;12.148;2023-04-24T02:48:39;10.30;99.90
792;DHT22;379;49.022;12.148;2023-04-24T02:51:06;10.30;99.90
792;DHT22;379;49.022;12.148;2023-04-24T02:53:33;10.30;99.90
792;DHT22;379;49.022;12.148;2023-04-24T02:56:00;10.30;99.90
792;DHT22;379;49.022;12.148;2023-04-24T02:58:27;10.30;99.90
792;DHT22;379;49.022;12.148;2023-04-24T03:00:54;10.30;99.90
792;DHT22;379;49.022;12.148;2023-04-24T03:03:21;10.30;99.90
792;DHT22;379;49.022;12.148;2023-04-24T03:05:50;10.20;99.90
792;DHT22;379;49.022;12.148;2023-04-24T03:08:17;10.20;99.90
792;DHT22;379;49.022;12.148;2023-04-24T03:10:44;10.20;99.90
792;DHT22;379;49.022;12.148;2023-04-24T03:13:10;10.10;99.90
792;DHT22;379;49.022;12.148;2023-04-24T03:15:37;10.10;99.90
792;DHT22;379;49.022;12.148;2023-04-24T03:18:04;10.10;99.90
792;DHT22;379;49.022;12.148;2023-04-24T03:20:30;10.10;99.90
792;DHT22;379;49.022;12.148;2023-04-24T03:22:58;10.00;99.90
792;DHT22;379;49.022;12.148;2023-04-24T03:25:26;10.00;99.90
792;DHT22;379;49.022;12.148;2023-04-24T03:27:52;10.00;99.90
792;DHT22;379;49.022;12.148;2023-04-24T03:30:20;10.00;99.90
792;DHT22;379;49.022;12.148;2023-04-24T03:32:46;10.00;99.90
792;DHT22;379;49.022;12.148;2023-04-24T03:35:13;9.90;99.90
792;DHT22;379;49.022;12.148;2023-04-24T03:37:40;9.90;99.90
792;DHT22;379;49.022;12.148;2023-04-24T03:40:09;9.80;99.90
792;DHT22;379;49.022;12.148;2023-04-24T03:42:36;9.90;99.90
792;DHT22;379;49.022;12.148;2023-04-24T03:45:03;9.80;99.90
792;DHT22;379;49.022;12.148;2023-04-24T03:47:30;9.80;99.90
792;DHT22;379;49.022;12.148;2023-04-24T03:49:56;9.80;99.90
792;DHT22;379;49.022;12.148;2023-04-24T03:52:23;9.80;99.90
792;DHT22;379;49.022;12.148;2023-04-24T03:54:50;9.80;99.90
792;DHT22;379;49.022;12.148;2023-04-24T03:57:18;9.70;99.90
792;DHT22;379;49.022;12.148;2023-04-24T03:59:45;9.70;99.90
792;DHT22;379;49.022;12.148;2023-04-24T04:02:11;9.70;99.90
792;DHT22;379;49.022;12.148;2023-04-24T04:04:38;9.70;99.90
792;DHT22;379;49.022;12.148;2023-04-24T04:07:05;9.70;99.90
792;DHT22;379;49.022;12.148;2023-04-24T04:09:33;9.70;99.90
792;DHT22;379;49.022;12.148;2023-04-24T04:11:59;9.70;99.90
792;DHT22;379;49.022;12.148;2023-04-24T04:14:28;9.70;99.90
792;DHT22;379;49.022;12.148;2023-04-24T04:16:55;9.70;99.90
792;DHT22;379;49.022;12.148;2023-04-24T04:19:21;9.70;99.90
792;DHT22;379;49.022;12.148;2023-04-24T04:21:48;9.80;99.90
792;DHT22;379;49.022;12.148;2023-04-24T04:24:18;9.70;99.90
792;DHT22;379;49.022;12.148;2023-04-24T04:26:46;9.80;99.90
792;DHT22;379;49.022;12.148;2023-04-24T04:29:13;9.80;99.90
792;DHT22;379;49.022;12.148;2023-04-24T04:31:42;9.80;99.90
792;DHT22;379;49.022;12.148;2023-04-24T04:34:08;9.80;99.90
792;DHT22;379;49.022;12.148;2023-04-24T04:36:35;9.80;99.90
792;DHT22;379;49.022;12.148;2023-04-24T04:39:02;9.80;99.90
792;DHT22;379;49.022;12.148;2023-04-24T04:41:29;9.80;99.90
792;DHT22;379;49.022;12.148;2023-04-24T04:43:56;9.80;99.90
792;DHT22;379;49.022;12.148;2023-04-24T04:46:24;9.80;99.90
792;DHT22;379;49.022;12.148;2023-04-24T04:48:53;9.80;99.90
792;DHT22;379;49.022;12.148;2023-04-24T04:51:20;9.90;99.90
792;DHT22;379;49.022;12.148;2023-04-24T04:53:46;9.80;99.90
792;DHT22;379;49.022;12.148;2023-04-24T04:56:13;9.80;99.90
792;DHT22;379;49.022;12.148;2023-04-24T04:58:40;9.90;99.90
792;DHT22;379;49.022;12.148;2023-04-24T05:01:07;9.90;99.90
792;DHT22;379;49.022;12.148;2023-04-24T05:03:33;9.90;99.90
792;DHT22;379;49.022;12.148;2023-04-24T05:06:02;9.90;99.90
792;DHT22;379;49.022;12.148;2023-04-24T05:08:29;9.90;99.90
792;DHT22;379;49.022;12.148;2023-04-24T05:10:56;9.90;99.90
792;DHT22;379;49.022;12.148;2023-04-24T05:13:23;9.90;99.90
792;DHT22;379;49.022;12.148;2023-04-24T05:15:49;9.90;99.90
792;DHT22;379;49.022;12.148;2023-04-24T05:18:16;10.00;99.90
792;DHT22;379;49.022;12.148;2023-04-24T05:20:43;10.00;99.90
792;DHT22;379;49.022;12.148;2023-04-24T05:23:11;10.00;99.90
792;DHT22;379;49.022;12.148;2023-04-24T05:25:38;10.00;99.90
792;DHT22;379;49.022;12.148;2023-04-24T05:28:05;10.10;99.90
792;DHT22;379;49.022;12.148;2023-04-24T05:30:32;10.20;99.90
792;DHT22;379;49.022;12.148;2023-04-24T05:32:59;10.20;99.90
792;DHT22;379;49.022;12.148;2023-04-24T05:35:26;10.30;99.90
792;DHT22;379;49.022;12.148;2023-04-24T05:37:52;10.30;99.90
792;DHT22;379;49.022;12.148;2023-04-24T05:40:20;10.40;99.90
792;DHT22;379;49.022;12.148;2023-04-24T05:42:47;10.40;99.90
792;DHT22;379;49.022;12.148;2023-04-24T05:45:14;10.50;99.90
792;DHT22;379;49.022;12.148;2023-04-24T05:47:42;10.50;99.90
792;DHT22;379;49.022;12.148;2023-04-24T05:50:09;10.50;99.90
792;DHT22;379;49.022;12.148;2023-04-24T05:52:36;10.60;99.90
792;DHT22;379;49.022;12.148;2023-04-24T05:55:03;10.60;99.90
792;DHT22;379;49.022;12.148;2023-04-24T05:57:32;10.60;99.90
792;DHT22;379;49.022;12.148;2023-04-24T05:59:58;10.70;99.90
792;DHT22;379;49.022;12.148;2023-04-24T06:02:25;10.70;99.90
792;DHT22;379;49.022;12.148;2023-04-24T06:04:52;10.80;99.90
792;DHT22;379;49.022;12.148;2023-04-24T06:07:19;10.90;99.90
792;DHT22;379;49.022;12.148;2023-04-24T06:09:46;10.90;99.90
792;DHT22;379;49.022;12.148;2023-04-24T06:12:13;11.10;99.90
792;DHT22;379;49.022;12.148;2023-04-24T06:14:41;11.10;99.90
792;DHT22;379;49.022;12.148;2023-04-24T06:17:08;11.20;99.90
792;DHT22;379;49.022;12.148;2023-04-24T06:19:34;11.30;99.90
792;DHT22;379;49.022;12.148;2023-04-24T06:22:01;11.40;99.90
792;DHT22;379;49.022;12.148;2023-04-24T06:24:28;11.50;99.90
792;DHT22;379;49.022;12.148;2023-04-24T06:26:55;11.50;99.90
792;DHT22;379;49.022;12.148;2023-04-24T06:29:22;11.60;99.90
792;DHT22;379;49.022;12.148;2023-04-24T06:31:50;11.70;99.90
792;DHT22;379;49.022;12.148;2023-04-24T06:34:17;11.80;99.90
792;DHT22;379;49.022;12.148;2023-04-24T06:36:43;11.90;99.90
792;DHT22;379;49.022;12.148;2023-04-24T06:39:10;12.00;99.90
792;DHT22;379;49.022;12.148;2023-04-24T06:41:37;12.00;99.90
792;DHT22;379;49.022;12.148;2023-04-24T06:44:05;12.10;99.90
792;DHT22;379;49.022;12.148;2023-04-24T06:46:32;12.10;99.90
792;DHT22;379;49.022;12.148;2023-04-24T06:49:00;12.10;99.90
792;DHT22;379;49.022;12.148;2023-04-24T06:51:27;12.20;99.90
792;DHT22;379;49.022;12.148;2023-04-24T06:53:54;12.30;99.90
792;DHT22;379;49.022;12.148;2023-04-24T06:56:21;12.50;99.90
792;DHT22;379;49.022;12.148;2023-04-24T06:58:48;12.70;99.90
792;DHT22;379;49.022;12.148;2023-04-24T07:01:15;13.00;99.90
792;DHT22;379;49.022;12.148;2023-04-24T07:03:41;13.20;99.90
792;DHT22;379;49.022;12.148;2023-04-24T07:06:10;13.40;99.90
792;DHT22;379;49.022;12.148;2023-04-24T07:08:38;13.50;99.90
792;DHT22;379;49.022;12.148;2023-04-24T07:11:04;13.70;99.90
792;DHT22;379;49.022;12.148;2023-04-24T07:13:32;13.80;99.90
792;DHT22;379;49.022;12.148;2023-04-24T07:16:00;13.80;99.90
792;DHT22;379;49.022;12.148;2023-04-24T07:18:27;13.90;99.90
792;DHT22;379;49.022;12.148;2023-04-24T07:20:54;14.00;99.90
792;DHT22;379;49.022;12.148;2023-04-24T07:23:23;14.10;99.90
792;DHT22;379;49.022;12.148;2023-04-24T07:25:50;14.20;99.90
792;DHT22;379;49.022;12.148;2023-04-24T07:28:16;14.30;99.90
792;DHT22;379;49.022;12.148;2023-04-24T07:30:43;14.40;99.90
792;DHT22;379;49.022;12.148;2023-04-24T07:33:10;14.40;99.90
792;DHT22;379;49.022;12.148;2023-04-24T07:35:38;14.30;99.90
792;DHT22;379;49.022;12.148;2023-04-24T07:38:05;14.30;99.90
792;DHT22;379;49.022;12.148;2023-04-24T07:40:33;14.30;99.90
792;DHT22;379;49.022;12.148;2023-04-24T07:43:00;14.40;99.90
792;DHT22;379;49.022;12.148;2023-04-24T07:45:27;14.40;99.90
792;DHT22;379;49.022;12.148;2023-04-24T07:47:53;14.60;99.90
792;DHT22;379;49.022;12.148;2023-04-24T07:50:21;14.70;99.90
792;DHT22;379;49.022;12.148;2023-04-24T07:52:48;14.80;99.90
792;DHT22;379;49.022;12.148;2023-04-24T07:55:15;15.10;99.90
792;DHT22;379;49.022;12.148;2023-04-24T07:57:43;15.30;99.90
792;DHT22;379;49.022;12.148;2023-04-24T08:00:11;15.40;99.90
792;DHT22;379;49.022;12.148;2023-04-24T08:02:39;15.50;99.90
792;DHT22;379;49.022;12.148;2023-04-24T08:05:06;15.50;99.90
792;DHT22;379;49.022;12.148;2023-04-24T08:07:33;15.50;99.90
792;DHT22;379;49.022;12.148;2023-04-24T08:10:00;15.40;99.90
792;DHT22;379;49.022;12.148;2023-04-24T08:12:28;15.30;99.90
792;DHT22;379;49.022;12.148;2023-04-24T08:14:56;15.20;99.90
792;DHT22;379;49.022;12.148;2023-04-24T08:17:23;15.30;99.90
792;DHT22;379;49.022;12.148;2023-04-24T08:19:50;15.60;99.90
792;DHT22;379;49.022;12.148;2023-04-24T08:22:18;15.80;99.90
792;DHT22;379;49.022;12.148;2023-04-24T08:24:45;15.90;99.90
792;DHT22;379;49.022;12.148;2023-04-24T08:27:12;16.20;99.90
792;DHT22;379;49.022;12.148;2023-04-24T08:29:38;16.50;99.90
792;DHT22;379;49.022;12.148;2023-04-24T08:32:06;16.80;99.90
792;DHT22;379;49.022;12.148;2023-04-24T08:34:33;17.10;98.10
792;DHT22;379;49.022;12.148;2023-04-24T08:37:00;17.30;98.60
792;DHT22;379;49.022;12.148;2023-04-24T08:39:27;17.40;97.80
792;DHT22;379;49.022;12.148;2023-04-24T08:41:55;16.90;91.00
792;DHT22;379;49.022;12.148;2023-04-24T08:44:22;15.60;90.00
792;DHT22;379;49.022;12.148;2023-04-24T08:46:48;14.50;92.00
792;DHT22;379;49.022;12.148;2023-04-24T08:49:18;13.60;93.10
792;DHT22;379;49.022;12.148;2023-04-24T08:51:45;12.90;95.80
792;DHT22;379;49.022;12.148;2023-04-24T08:54:13;12.50;97.60
792;DHT22;379;49.022;12.148;2023-04-24T08:56:40;12.20;99.10
792;DHT22;379;49.022;12.148;2023-04-24T08:59:10;12.10;99.90
792;DHT22;379;49.022;12.148;2023-04-24T09:01:37;12.00;99.90
792;DHT22;379;49.022;12.148;2023-04-24T09:04:07;12.10;99.90
792;DHT22;379;49.022;12.148;2023-04-24T09:06:36;12.40;99.90
792;DHT22;379;49.022;12.148;2023-04-24T09:09:03;12.70;99.90
792;DHT22;379;49.022;12.148;2023-04-24T09:11:31;13.00;99.90
792;DHT22;379;49.022;12.148;2023-04-24T09:13:58;13.30;99.90
792;DHT22;379;49.022;12.148;2023-04-24T09:16:26;13.50;99.90
792;DHT22;379;49.022;12.148;2023-04-24T09:18:53;13.60;99.90
792;DHT22;379;49.022;12.148;2023-04-24T09:21:20;13.60;99.90
792;DHT22;379;49.022;12.148;2023-04-24T09:23:57;13.60;99.90
792;DHT22;379;49.022;12.148;2023-04-24T09:26:24;13.90;99.90
792;DHT22;379;49.022;12.148;2023-04-24T09:28:53;14.20;99.90
792;DHT22;379;49.022;12.148;2023-04-24T09:31:20;14.70;99.90
792;DHT22;379;49.022;12.148;2023-04-24T09:33:54;15.10;99.90
792;DHT22;379;49.022;12.148;2023-04-24T09:36:27;15.50;99.90
792;DHT22;379;49.022;12.148;2023-04-24T09:38:58;16.00;99.90
792;DHT22;379;49.022;12.148;2023-04-24T09:41:25;16.40;99.10
792;DHT22;379;49.022;12.148;2023-04-24T09:43:53;16.40;97.70
792;DHT22;379;49.022;12.148;2023-04-24T09:46:20;16.40;96.90
792;DHT22;379;49.022;12.148;2023-04-24T09:48:48;16.30;97.40
792;DHT22;379;49.022;12.148;2023-04-24T09:51:14;16.40;97.50
792;DHT22;379;49.022;12.148;2023-04-24T09:53:45;16.60;96.70
792;DHT22;379;49.022;12.148;2023-04-24T09:56:13;16.80;93.90
792;DHT22;379;49.022;12.148;2023-04-24T09:58:40;16.80;83.70
792;DHT22;379;49.022;12.148;2023-04-24T10:01:07;16.90;89.70
792;DHT22;379;49.022;12.148;2023-04-24T10:03:34;17.20;87.10
792;DHT22;379;49.022;12.148;2023-04-24T10:06:02;17.10;77.30
792;DHT22;379;49.022;12.148;2023-04-24T10:08:34;16.90;73.70
792;DHT22;379;49.022;12.148;2023-04-24T10:11:01;16.80;78.30
792;DHT22;379;49.022;12.148;2023-04-24T10:13:30;16.60;79.60
792;DHT22;379;49.022;12.148;2023-04-24T10:16:00;16.30;77.10
792;DHT22;379;49.022;12.148;2023-04-24T10:18:27;15.90;77.10
792;DHT22;379;49.022;12.148;2023-04-24T10:20:54;15.50;79.60
792;DHT22;379;49.022;12.148;2023-04-24T10:23:21;15.20;82.20
792;DHT22;379;49.022;12.148;2023-04-24T10:25:49;15.20;80.10
792;DHT22;379;49.022;12.148;2023-04-24T10:28:18;15.20;79.90
792;DHT22;379;49.022;12.148;2023-04-24T10:30:47;15.30;80.50
792;DHT22;379;49.022;12.148;2023-04-24T10:33:16;15.30;72.40
792;DHT22;379;49.022;12.148;2023-04-24T10:35:45;15.20;72.60
792;DHT22;379;49.022;12.148;2023-04-24T10:38:18;15.10;73.30
792;DHT22;379;49.022;12.148;2023-04-24T10:40:49;15.00;76.20
792;DHT22;379;49.022;12.148;2023-04-24T10:43:17;15.00;74.50
792;DHT22;379;49.022;12.148;2023-04-24T10:48:43;15.20;75.90
792;DHT22;379;49.022;12.148;2023-04-24T10:51:12;15.50;73.80
792;DHT22;379;49.022;12.148;2023-04-24T10:53:39;15.90;77.90
792;DHT22;379;49.022;12.148;2023-04-24T10:56:08;16.10;71.00
792;DHT22;379;49.022;12.148;2023-04-24T10:58:37;16.10;66.90
792;DHT22;379;49.022;12.148;2023-04-24T11:01:05;16.30;73.20
792;DHT22;379;49.022;12.148;2023-04-24T11:03:33;16.50;68.90
792;DHT22;379;49.022;12.148;2023-04-24T11:06:03;16.80;71.70
792;DHT22;379;49.022;12.148;2023-04-24T11:08:32;17.10;71.70
792;DHT22;379;49.022;12.148;2023-04-24T11:11:07;17.30;70.70
792;DHT22;379;49.022;12.148;2023-04-24T11:14:03;17.30;68.30
792;DHT22;379;49.022;12.148;2023-04-24T11:16:33;17.10;67.40
792;DHT22;379;49.022;12.148;2023-04-24T11:19:02;16.80;66.60
792;DHT22;379;49.022;12.148;2023-04-24T11:21:39;16.40;67.10
792;DHT22;379;49.022;12.148;2023-04-24T11:24:30;16.20;69.70
792;DHT22;379;49.022;12.148;2023-04-24T11:27:00;16.10;70.10
792;DHT22;379;49.022;12.148;2023-04-24T11:29:41;16.10;67.10
792;DHT22;379;49.022;12.148;2023-04-24T11:32:15;16.20;68.10
792;DHT22;379;49.022;12.148;2023-04-24T11:34:46;16.00;67.80
792;DHT22;379;49.022;12.148;2023-04-24T11:37:14;15.70;67.00
792;DHT22;379;49.022;12.148;2023-04-24T11:39:41;15.20;68.10
792;DHT22;379;49.022;12.148;2023-04-24T11:42:08;14.70;69.90
792;DHT22;379;49.022;12.148;2023-04-24T11:44:36;14.20;74.90
792;DHT22;379;49.022;12.148;2023-04-24T11:47:04;13.60;78.20
792;DHT22;379;49.022;12.148;2023-04-24T11:49:32;13.10;81.10
792;DHT22;379;49.022;12.148;2023-04-24T11:51:59;12.80;82.30
792;DHT22;379;49.022;12.148;2023-04-24T11:54:28;12.70;81.70
792;DHT22;379;49.022;12.148;2023-04-24T11:56:56;12.80;82.60
792;DHT22;379;49.022;12.148;2023-04-24T11:59:23;13.10;82.10
792;DHT22;379;49.022;12.148;2023-04-24T12:01:50;13.60;82.50
792;DHT22;379;49.022;12.148;2023-04-24T12:04:17;14.30;83.30
792;DHT22;379;49.022;12.148;2023-04-24T12:06:59;15.10;83.00
792;DHT22;379;49.022;12.148;2023-04-24T12:09:28;15.60;80.50
792;DHT22;379;49.022;12.148;2023-04-24T12:11:56;15.80;77.20
792;DHT22;379;49.022;12.148;2023-04-24T12:14:23;15.90;77.10
792;DHT22;379;49.022;12.148;2023-04-24T12:16:50;15.90;75.30
792;DHT22;379;49.022;12.148;2023-04-24T12:19:21;15.90;73.30
792;DHT22;379;49.022;12.148;2023-04-24T12:21:59;15.90;72.60
792;DHT22;379;49.022;12.148;2023-04-24T12:24:28;16.00;69.80
792;DHT22;379;49.022;12.148;2023-04-24T12:26:55;16.10;67.80
792;DHT22;379;49.022;12.148;2023-04-24T12:29:23;15.90;65.60
792;DHT22;379;49.022;12.148;2023-04-24T12:31:50;16.00;67.80
792;DHT22;379;49.022;12.148;2023-04-24T12:34:18;16.10;67.00
792;DHT22;379;49.022;12.148;2023-04-24T12:36:45;16.20;66.30
792;DHT22;379;49.022;12.148;2023-04-24T12:39:15;16.30;66.20
792;DHT22;379;49.022;12.148;2023-04-24T12:41:54;16.60;65.20
792;DHT22;379;49.022;12.148;2023-04-24T12:44:29;16.90;63.60
792;DHT22;379;49.022;12.148;2023-04-24T12:46:56;17.10;62.50
792;DHT22;379;49.022;12.148;2023-04-24T12:49:22;17.10;62.00
792;DHT22;379;49.022;12.148;2023-04-24T12:51:49;16.90;60.80
792;DHT22;379;49.022;12.148;2023-04-24T12:54:16;16.70;59.30
792;DHT22;379;49.022;12.148;2023-04-24T12:56:43;16.60;58.30
792;DHT22;379;49.022;12.148;2023-04-24T12:59:11;16.60;60.90
792;DHT22;379;49.022;12.148;2023-04-24T13:01:38;16.70;60.80
792;DHT22;379;49.022;12.148;2023-04-24T13:04:05;16.80;60.50
792;DHT22;379;49.022;12.148;2023-04-24T13:06:32;16.90;60.90
792;DHT22;379;49.022;12.148;2023-04-24T13:08:58;16.80;58.70
792;DHT22;379;49.022;12.148;2023-04-24T13:11:25;16.50;58.70
792;DHT22;379;49.022;12.148;2023-04-24T13:13:52;16.10;55.30
792;DHT22;379;49.022;12.148;2023-04-24T13:16:20;15.60;56.90
792;DHT22;379;49.022;12.148;2023-04-24T13:18:48;15.10;56.40
792;DHT22;379;49.022;12.148;2023-04-24T13:21:15;14.70;59.30
792;DHT22;379;49.022;12.148;2023-04-24T13:23:42;14.50;59.90
792;DHT22;379;49.022;12.148;2023-04-24T13:26:08;14.50;61.30
792;DHT22;379;49.022;12.148;2023-04-24T13:28:35;14.40;59.80
792;DHT22;379;49.022;12.148;2023-04-24T13:31:03;14.60;58.20
792;DHT22;379;49.022;12.148;2023-04-24T13:33:33;14.70;57.80
792;DHT22;379;49.022;12.148;2023-04-24T13:35:59;14.90;56.90
792;DHT22;379;49.022;12.148;2023-04-24T13:38:26;14.90;57.20
792;DHT22;379;49.022;12.148;2023-04-24T13:40:53;15.00;56.90
792;DHT22;379;49.022;12.148;2023-04-24T13:43:20;15.10;58.40
792;DHT22;379;49.022;12.148;2023-04-24T13:45:47;15.30;56.20
792;DHT22;379;49.022;12.148;2023-04-24T13:48:13;15.30;55.00
792;DHT22;379;49.022;12.148;2023-04-24T13:50:42;15.30;56.50
792;DHT22;379;49.022;12.148;2023-04-24T13:53:09;15.50;56.20
792;DHT22;379;49.022;12.148;2023-04-24T13:55:36;15.60;55.20
792;DHT22;379;49.022;12.148;2023-04-24T13:58:04;15.80;56.20
792;DHT22;379;49.022;12.148;2023-04-24T14:00:31;15.90;54.50
792;DHT22;379;49.022;12.148;2023-04-24T14:02:58;15.90;54.20
792;DHT22;379;49.022;12.148;2023-04-24T14:05:25;15.90;54.10
792;DHT22;379;49.022;12.148;2023-04-24T14:07:53;15.90;54.90
792;DHT22;379;49.022;12.148;2023-04-24T14:10:20;16.00;54.10
792;DHT22;379;49.022;12.148;2023-04-24T14:12:47;16.10;54.70
792;DHT22;379;49.022;12.148;2023-04-24T14:15:13;16.10;54.30
792;DHT22;379;49.022;12.148;2023-04-24T14:17:40;15.90;52.60
792;DHT22;379;49.022;12.148;2023-04-24T14:20:08;15.50;53.60
792;DHT22;379;49.022;12.148;2023-04-24T14:22:35;15.20;55.70
792;DHT22;379;49.022;12.148;2023-04-24T14:25:04;15.00;55.80
792;DHT22;379;49.022;12.148;2023-04-24T14:27:31;14.70;56.30
792;DHT22;379;49.022;12.148;2023-04-24T14:29:59;14.60;55.80
792;DHT22;379;49.022;12.148;2023-04-24T14:32:26;14.40;56.80
792;DHT22;379;49.022;12.148;2023-04-24T14:34:53;14.30;57.80
792;DHT22;379;49.022;12.148;2023-04-24T14:37:20;14.10;58.00
792;DHT22;379;49.022;12.148;2023-04-24T14:39:47;13.80;58.70
792;DHT22;379;49.022;12.148;2023-04-24T14:42:15;13.80;59.40
792;DHT22;379;49.022;12.148;2023-04-24T14:44:43;13.80;61.10
792;DHT22;379;49.022;12.148;2023-04-24T14:47:10;14.20;63.00
792;DHT22;379;49.022;12.148;2023-04-24T14:49:36;14.30;59.80
792;DHT22;379;49.022;12.148;2023-04-24T14:52:03;14.30;63.60
792;DHT22;379;49.022;12.148;2023-04-24T14:54:30;14.30;57.30
792;DHT22;379;49.022;12.148;2023-04-24T14:56:57;14.30;59.60
792;DHT22;379;49.022;12.148;2023-04-24T14:59:25;14.10;57.50
792;DHT22;379;49.022;12.148;2023-04-24T15:01:52;13.90;57.50
792;DHT22;379;49.022;12.148;2023-04-24T15:04:23;13.80;57.90
792;DHT22;379;49.022;12.148;2023-04-24T15:06:50;13.70;57.00
792;DHT22;379;49.022;12.148;2023-04-24T15:09:19;13.70;58.20
792;DHT22;379;49.022;12.148;2023-04-24T15:11:45;13.80;57.70
792;DHT22;379;49.022;12.148;2023-04-24T15:14:12;13.90;57.70
792;DHT22;379;49.022;12.148;2023-04-24T15:16:40;14.10;57.10
792;DHT22;379;49.022;12.148;2023-04-24T15:19:07;14.30;58.30
792;DHT22;379;49.022;12.148;2023-04-24T15:21:35;14.50;56.90
792;DHT22;379;49.022;12.148;2023-04-24T15:24:02;14.50;57.70
792;DHT22;379;49.022;12.148;2023-04-24T15:26:29;14.40;56.90
792;DHT22;379;49.022;12.148;2023-04-24T15:28:56;14.20;57.90
792;DHT22;379;49.022;12.148;2023-04-24T15:31:23;14.10;57.50
792;DHT22;379;49.022;12.148;2023-04-24T15:33:51;14.00;58.10
792;DHT22;379;49.022;12.148;2023-04-24T15:36:18;14.00;57.60
792;DHT22;379;49.022;12.148;2023-04-24T15:38:46;13.80;57.80
792;DHT22;379;49.022;12.148;2023-04-24T15:41:13;13.80;58.10
792;DHT22;379;49.022;12.148;2023-04-24T15:43:40;13.80;58.30
792;DHT22;379;49.022;12.148;2023-04-24T15:46:07;14.00;59.70
792;DHT22;379;49.022;12.148;2023-04-24T15:48:34;14.30;59.50
792;DHT22;379;49.022;12.148;2023-04-24T15:51:02;14.60;59.70
792;DHT22;379;49.022;12.148;2023-04-24T15:53:29;14.90;58.40
792;DHT22;379;49.022;12.148;2023-04-24T15:55:55;15.20;59.40
792;DHT22;379;49.022;12.148;2023-04-24T15:58:22;15.40;58.20
792;DHT22;379;49.022;12.148;2023-04-24T16:00:49;15.20;56.30
792;DHT22;379;49.022;12.148;2023-04-24T16:03:16;15.10;57.20
792;DHT22;379;49.022;12.148;2023-04-24T16:05:43;14.80;55.80
792;DHT22;379;49.022;12.148;2023-04-24T16:08:11;14.60;56.90
792;DHT22;379;49.022;12.148;2023-04-24T16:10:38;14.40;56.50
792;DHT22;379;49.022;12.148;2023-04-24T16:13:05;14.10;55.80
792;DHT22;379;49.022;12.148;2023-04-24T16:15:32;14.00;55.50
792;DHT22;379;49.022;12.148;2023-04-24T16:17:59;13.80;56.40
792;DHT22;379;49.022;12.148;2023-04-24T16:20:26;13.80;56.40
792;DHT22;379;49.022;12.148;2023-04-24T16:22:52;13.70;56.40
792;DHT22;379;49.022;12.148;2023-04-24T16:25:21;13.70;55.60